Lakeland-Noble F. Lee Memorial field


Codes: KARV/ARV
Name: Lakeland-Noble F. Lee Memorial field
City: Minocqua-Woodruff
Country: United States
Elevation: 1629 ft.
Wikipedia:

Photos at Lakeland-Noble F. Lee Memorial field


   Photos courtesy of SpottingLog. You can add your own sightings and photos by signing up for a free trial today.



No photos found.

Weather at Lakeland-Noble F. Lee Memorial field


Time (UTC)DescriptionTempratureWindCloud coverageVisibilityPressureHumidity
23-May-2024 21:00Broken Clouds21°C7 mph, W60%10000m1011hPa43%
24-May-2024 00:00Broken Clouds18°C2 mph, NE80%10000m1011hPa62%
24-May-2024 03:00Clear Sky10°C4 mph, E5%10000m1012hPa83%
24-May-2024 06:00Clear Sky9°C4 mph, SE9%10000m1012hPa82%
24-May-2024 09:00Scattered Clouds8°C7 mph, E32%10000m1011hPa92%
24-May-2024 12:00Few Clouds10°C9 mph, SE18%10000m1011hPa80%
24-May-2024 15:00Overcast Clouds15°C11 mph, SE100%10000m1009hPa61%
24-May-2024 18:00Overcast Clouds20°C16 mph, SE100%10000m1005hPa51%
24-May-2024 21:00Light Rain18°C16 mph, SE100%10000m1003hPa69%
25-May-2024 00:00Light Rain14°C13 mph, SE100%10000m1000hPa96%
25-May-2024 03:00Light Rain14°C11 mph, SE100%10000m1001hPa96%
25-May-2024 06:00Light Rain10°C11 mph, W100%10000m1003hPa97%
25-May-2024 09:00Overcast Clouds5°C11 mph, W97%10000m1007hPa92%
25-May-2024 12:00Broken Clouds4°C9 mph, W74%10000m1009hPa86%
25-May-2024 15:00Clear Sky13°C11 mph, NW0%10000m1009hPa45%
25-May-2024 18:00Clear Sky19°C9 mph, W0%10000m1009hPa39%
25-May-2024 21:00Overcast Clouds20°C11 mph, W98%10000m1009hPa42%
26-May-2024 00:00Overcast Clouds15°C7 mph, SW99%10000m1011hPa70%
26-May-2024 03:00Light Rain12°C4 mph, S100%10000m1011hPa83%
26-May-2024 06:00Overcast Clouds11°C4 mph, SE100%10000m1010hPa87%
26-May-2024 09:00Overcast Clouds10°C7 mph, E97%10000m1010hPa87%
26-May-2024 12:00Overcast Clouds12°C9 mph, SE98%10000m1009hPa82%
26-May-2024 15:00Overcast Clouds14°C13 mph, SE100%10000m1007hPa58%
26-May-2024 18:00Overcast Clouds15°C13 mph, E100%10000m1004hPa55%
26-May-2024 21:00Moderate Rain10°C13 mph, NE100%6189m1003hPa95%
27-May-2024 00:00Moderate Rain10°C13 mph, NE100%5184m1000hPa96%
27-May-2024 03:00Moderate Rain9°C9 mph, NE100%6169m1000hPa97%
27-May-2024 06:00Heavy Intensity Rain8°C11 mph, N100%5924m999hPa98%
27-May-2024 09:00Moderate Rain8°C13 mph, N100%2281m999hPa98%
27-May-2024 12:00Moderate Rain8°C18 mph, N100%8897m1000hPa97%
27-May-2024 15:00Moderate Rain9°C16 mph, N100%10000m1002hPa97%
27-May-2024 18:00Light Rain10°C13 mph, N100%7666m1004hPa98%
27-May-2024 21:00Overcast Clouds11°C11 mph, NW100%10000m1006hPa94%
28-May-2024 00:00Light Rain13°C11 mph, NW100%10000m1007hPa78%
28-May-2024 03:00Overcast Clouds9°C7 mph, NW100%10000m1008hPa78%
28-May-2024 06:00Broken Clouds7°C7 mph, NW84%10000m1009hPa83%
28-May-2024 09:00Scattered Clouds6°C4 mph, NW38%10000m1009hPa90%
28-May-2024 12:00Scattered Clouds9°C4 mph, SW27%10000m1009hPa74%
28-May-2024 15:00Light Rain10°C7 mph, SW98%10000m1008hPa95%
28-May-2024 18:00Light Rain9°C11 mph, NW99%10000m1008hPa97%